Time;durP1;ratioP1;P1;durP2;ratioP2;P2;SDS_P1;SDS_P2;PMS_P1;PMS_P2;Temp;Humidity;BMP_temperature;BMP_pressure;BME280_temperature;BME280_humidity;BME280_pressure;Samples;Min_cycle;Max_cycle;Signal;HPM_P1;HPM_P2
2023/07/18 00:03:23;;;;;;;2.67;2.43;;;13.70;99.90;;;;;;4991687;28;21064;-59
2023/07/18 00:05:51;;;;;;;2.40;2.10;;;13.70;99.90;;;;;;5001075;28;20472;-59
2023/07/18 00:08:19;;;;;;;3.30;3.00;;;13.70;99.90;;;;;;4996890;28;21860;-58
2023/07/18 00:10:47;;;;;;;3.03;2.70;;;13.70;99.90;;;;;;4999049;28;20931;-59
2023/07/18 00:13:15;;;;;;;3.40;2.70;;;13.60;99.90;;;;;;4994289;28;21060;-60
2023/07/18 00:15:44;;;;;;;3.53;3.00;;;13.60;99.90;;;;;;4996180;28;20484;-58
2023/07/18 00:44:43;;;;;;;4.03;3.63;;;13.70;99.90;;;;;;4958731;28;20527;-58
2023/07/18 00:47:11;;;;;;;5.03;3.80;;;13.70;99.90;;;;;;4989137;28;20897;-59
2023/07/18 00:49:39;;;;;;;6.73;4.30;;;13.70;99.90;;;;;;4995104;28;20986;-59
2023/07/18 00:52:08;;;;;;;4.53;4.03;;;13.70;99.90;;;;;;4997931;28;20514;-58
2023/07/18 00:54:36;;;;;;;4.97;4.03;;;13.70;99.90;;;;;;4998768;28;20687;-59
2023/07/18 00:57:06;;;;;;;4.70;4.30;;;13.70;99.90;;;;;;4994643;28;20572;-59
2023/07/18 00:59:35;;;;;;;5.50;4.57;;;13.60;99.90;;;;;;4998904;28;20555;-58
2023/07/18 01:02:05;;;;;;;5.70;4.97;;;13.60;99.90;;;;;;4998728;28;20484;-59
2023/07/18 01:04:33;;;;;;;5.33;4.57;;;13.60;99.90;;;;;;4997182;28;20535;-58
2023/07/18 01:07:02;;;;;;;4.30;3.90;;;13.70;99.90;;;;;;4991580;28;20899;-59
2023/07/18 01:09:31;;;;;;;5.80;5.10;;;13.70;99.90;;;;;;4997257;28;20556;-58
2023/07/18 01:11:59;;;;;;;6.30;4.63;;;13.70;99.90;;;;;;4995740;28;20525;-59
2023/07/18 01:14:27;;;;;;;6.70;4.60;;;13.70;99.90;;;;;;4997923;28;20567;-58
2023/07/18 01:16:55;;;;;;;5.67;5.17;;;13.70;99.90;;;;;;5000423;28;20548;-58
2023/07/18 01:19:24;;;;;;;6.17;5.00;;;13.70;99.90;;;;;;4999654;28;20853;-59
2023/07/18 01:21:53;;;;;;;5.97;5.47;;;13.60;99.90;;;;;;4995919;28;20518;-58
2023/07/18 01:24:22;;;;;;;8.73;6.40;;;13.60;99.90;;;;;;4997141;28;21520;-60
2023/07/18 01:26:51;;;;;;;6.80;6.20;;;13.60;99.90;;;;;;4996412;28;20986;-60
2023/07/18 01:29:19;;;;;;;5.97;5.43;;;13.60;99.90;;;;;;4992529;28;20589;-62
2023/07/18 01:31:48;;;;;;;6.57;5.47;;;13.60;99.90;;;;;;4992539;28;20488;-60
2023/07/18 01:34:16;;;;;;;6.80;5.90;;;13.60;99.90;;;;;;4993902;28;20497;-59
2023/07/18 01:36:44;;;;;;;7.50;6.80;;;13.60;99.90;;;;;;4994564;28;20584;-63
2023/07/18 01:39:13;;;;;;;8.10;6.60;;;13.60;99.90;;;;;;4989908;28;20599;-61
2023/07/18 01:41:41;;;;;;;6.90;6.30;;;13.70;99.90;;;;;;4997555;28;20579;-61
2023/07/18 01:44:09;;;;;;;6.90;6.30;;;13.70;99.90;;;;;;4998835;28;20583;-62
2023/07/18 01:46:37;;;;;;;8.00;7.20;;;13.70;99.90;;;;;;4993707;28;20534;-62
2023/07/18 01:49:05;;;;;;;8.17;6.53;;;13.70;99.90;;;;;;4996374;28;21030;-61
2023/07/18 01:51:33;;;;;;;8.00;7.20;;;13.70;99.90;;;;;;4993138;28;20488;-60
2023/07/18 01:54:01;;;;;;;7.37;6.67;;;13.60;99.90;;;;;;4997973;28;20496;-62
2023/07/18 01:56:30;;;;;;;7.83;7.03;;;13.60;99.90;;;;;;4998019;28;20468;-65
2023/07/18 01:58:58;;;;;;;8.10;7.30;;;13.60;99.90;;;;;;4993189;28;20981;-59
2023/07/18 02:01:27;;;;;;;7.90;7.10;;;13.60;99.90;;;;;;4996990;28;20949;-60
2023/07/18 02:03:55;;;;;;;8.07;7.23;;;13.60;99.90;;;;;;4997682;28;21639;-59
2023/07/18 02:06:24;;;;;;;9.70;8.40;;;13.60;99.90;;;;;;4995190;28;20571;-60
2023/07/18 02:08:52;;;;;;;10.37;8.40;;;13.60;99.90;;;;;;4994537;28;21059;-58
2023/07/18 02:11:20;;;;;;;10.83;7.90;;;13.60;99.90;;;;;;4990061;28;20592;-57
2023/07/18 02:13:50;;;;;;;9.93;8.30;;;13.60;99.90;;;;;;4994537;28;20892;-59
2023/07/18 02:16:18;;;;;;;8.20;7.40;;;13.60;99.90;;;;;;4997535;28;20559;-59
2023/07/18 02:18:46;;;;;;;8.67;7.83;;;13.60;99.90;;;;;;5003288;28;20468;-57
2023/07/18 02:21:14;;;;;;;8.50;7.60;;;13.50;99.90;;;;;;4996250;28;20487;-58
2023/07/18 02:23:42;;;;;;;9.33;8.40;;;13.60;99.90;;;;;;5000167;28;20890;-58
2023/07/18 02:26:10;;;;;;;8.70;7.80;;;13.50;99.90;;;;;;4996998;28;20559;-59
2023/07/18 02:28:38;;;;;;;8.73;7.90;;;13.50;99.90;;;;;;4999173;28;20487;-59
2023/07/18 02:31:08;;;;;;;8.83;7.93;;;13.60;99.90;;;;;;4996249;28;20477;-58
2023/07/18 02:33:36;;;;;;;9.43;7.97;;;13.60;99.90;;;;;;4999816;28;21041;-57
2023/07/18 02:36:06;;;;;;;11.17;8.87;;;13.50;99.90;;;;;;4998052;28;21204;-60
2023/07/18 02:38:34;;;;;;;9.67;8.47;;;13.50;99.90;;;;;;4998999;28;20551;-59
2023/07/18 02:41:02;;;;;;;9.47;8.53;;;13.50;99.90;;;;;;4996898;28;20467;-59
2023/07/18 02:43:30;;;;;;;9.27;8.27;;;13.50;99.90;;;;;;4997798;28;20481;-57
2023/07/18 02:45:58;;;;;;;11.50;8.80;;;13.50;99.90;;;;;;5000294;28;20491;-58
2023/07/18 02:48:27;;;;;;;10.20;7.80;;;13.50;99.90;;;;;;4998418;28;20460;-58
2023/07/18 02:50:55;;;;;;;9.00;8.07;;;13.50;99.90;;;;;;5000399;28;20511;-58
2023/07/18 02:53:23;;;;;;;9.50;8.40;;;13.60;99.90;;;;;;4996333;28;21054;-59
2023/07/18 02:55:51;;;;;;;9.10;8.13;;;13.60;99.90;;;;;;4992413;28;20559;-58
2023/07/18 02:58:19;;;;;;;8.50;7.70;;;13.60;99.90;;;;;;4991557;28;20480;-59
2023/07/18 03:00:47;;;;;;;11.93;8.70;;;13.60;99.90;;;;;;4996481;28;20556;-59
2023/07/18 03:03:15;;;;;;;11.10;9.27;;;13.60;99.90;;;;;;4998529;28;20580;-58
2023/07/18 03:05:46;;;;;;;9.70;8.40;;;13.50;99.90;;;;;;5000549;28;20477;-58
2023/07/18 03:08:14;;;;;;;10.77;8.53;;;13.50;99.90;;;;;;5003143;28;20476;-58
2023/07/18 03:10:42;;;;;;;8.57;7.77;;;13.50;99.90;;;;;;5000932;28;20472;-58
2023/07/18 03:13:10;;;;;;;8.80;7.70;;;13.50;99.90;;;;;;4995220;28;20569;-59
2023/07/18 03:15:39;;;;;;;10.50;8.60;;;13.50;99.90;;;;;;4999561;28;20489;-59
2023/07/18 03:18:07;;;;;;;9.10;8.20;;;13.40;99.90;;;;;;5000605;28;20541;-59
2023/07/18 03:20:36;;;;;;;10.20;8.30;;;13.40;99.90;;;;;;5001915;28;20476;-58
2023/07/18 03:23:06;;;;;;;11.63;8.93;;;13.40;99.90;;;;;;4996618;28;20996;-58
2023/07/18 03:25:34;;;;;;;10.57;9.47;;;13.50;99.90;;;;;;5002253;28;20546;-58
2023/07/18 03:28:02;;;;;;;10.00;8.90;;;13.50;99.90;;;;;;4998619;28;20535;-58
2023/07/18 03:30:31;;;;;;;9.90;8.87;;;13.50;99.90;;;;;;4999083;28;20603;-58
2023/07/18 03:32:59;;;;;;;10.40;9.40;;;13.50;99.90;;;;;;4999664;28;20488;-58
2023/07/18 03:35:26;;;;;;;9.43;8.53;;;13.50;99.90;;;;;;4994617;28;20489;-59
2023/07/18 03:37:54;;;;;;;10.00;9.00;;;13.50;99.90;;;;;;5000030;28;20499;-59
2023/07/18 03:40:24;;;;;;;9.30;8.33;;;13.50;99.90;;;;;;4995771;28;21070;-58
2023/07/18 03:42:52;;;;;;;10.10;8.60;;;13.50;99.90;;;;;;4996513;28;20575;-59
2023/07/18 03:45:20;;;;;;;11.73;8.37;;;13.50;99.90;;;;;;4999070;28;20563;-58
2023/07/18 03:47:48;;;;;;;10.23;8.93;;;13.50;99.90;;;;;;4996293;28;20472;-59
2023/07/18 03:50:17;;;;;;;8.50;7.70;;;13.50;99.90;;;;;;4999438;28;20465;-59
2023/07/18 03:52:45;;;;;;;10.57;9.20;;;13.50;99.90;;;;;;4994821;28;20563;-59
2023/07/18 03:55:13;;;;;;;9.63;8.70;;;13.60;99.90;;;;;;5000744;28;20608;-61
2023/07/18 03:57:42;;;;;;;10.67;8.30;;;13.60;99.90;;;;;;4997751;28;20475;-59
2023/07/18 04:00:17;;;;;;;8.97;8.00;;;13.60;99.90;;;;;;4998301;28;20870;-58
2023/07/18 04:02:46;;;;;;;10.07;8.43;;;13.60;99.90;;;;;;4998039;28;20495;-60
2023/07/18 04:05:15;;;;;;;10.77;9.20;;;13.60;99.90;;;;;;4992900;28;20592;-59
2023/07/18 04:07:43;;;;;;;11.03;8.90;;;13.60;99.90;;;;;;4993156;28;20570;-60
2023/07/18 04:10:12;;;;;;;13.10;9.10;;;13.60;99.90;;;;;;4994176;28;20974;-58
2023/07/18 04:12:42;;;;;;;8.90;8.00;;;13.70;99.90;;;;;;4998297;28;20539;-59
2023/07/18 04:15:12;;;;;;;9.50;8.40;;;13.70;99.90;;;;;;4995232;28;21005;-59
2023/07/18 04:17:40;;;;;;;11.30;8.17;;;13.70;99.90;;;;;;5000939;28;20483;-59
2023/07/18 04:20:08;;;;;;;11.03;8.40;;;13.80;99.90;;;;;;4996729;28;20591;-60
2023/07/18 04:22:36;;;;;;;8.93;8.03;;;13.90;99.90;;;;;;4999836;28;20498;-59
2023/07/18 04:25:06;;;;;;;9.33;8.43;;;14.00;99.90;;;;;;4997064;28;20551;-60
2023/07/18 04:27:34;;;;;;;9.73;8.37;;;14.00;99.90;;;;;;4990410;28;20568;-60
2023/07/18 04:30:04;;;;;;;9.57;8.23;;;14.00;99.90;;;;;;4989593;28;20484;-58
2023/07/18 04:32:32;;;;;;;9.67;8.03;;;14.00;99.90;;;;;;4992130;28;20516;-59
2023/07/18 04:35:00;;;;;;;8.70;7.90;;;14.10;99.90;;;;;;4994231;28;20496;-59
2023/07/18 04:37:29;;;;;;;9.50;8.50;;;14.10;99.90;;;;;;4991977;28;20479;-59
2023/07/18 04:39:57;;;;;;;9.20;7.70;;;14.20;99.90;;;;;;4995990;28;20473;-60
2023/07/18 04:42:25;;;;;;;10.47;8.73;;;14.20;99.90;;;;;;4991325;28;20688;-62
2023/07/18 04:44:53;;;;;;;11.00;8.30;;;14.20;99.90;;;;;;4994443;28;21017;-58
2023/07/18 04:47:22;;;;;;;11.43;8.37;;;14.30;99.90;;;;;;4996497;28;21033;-58
2023/07/18 04:49:50;;;;;;;9.07;7.70;;;14.30;99.90;;;;;;4992422;28;20572;-61
2023/07/18 04:52:18;;;;;;;11.83;8.37;;;14.30;99.90;;;;;;4985930;28;20492;-58
2023/07/18 04:54:46;;;;;;;9.10;8.17;;;14.40;99.90;;;;;;4994289;28;20499;-59
2023/07/18 04:57:14;;;;;;;10.17;8.60;;;14.30;99.90;;;;;;4986762;28;20476;-57
2023/07/18 04:59:42;;;;;;;9.50;8.47;;;14.40;99.90;;;;;;4993105;28;22326;-58
2023/07/18 05:02:10;;;;;;;10.17;8.60;;;14.40;99.90;;;;;;4992623;28;20567;-59
2023/07/18 05:04:39;;;;;;;10.90;8.17;;;14.50;99.90;;;;;;4983058;28;24026;-60
2023/07/18 05:07:08;;;;;;;9.10;7.20;;;14.50;99.90;;;;;;4992242;28;20895;-61
2023/07/18 05:09:36;;;;;;;10.60;8.30;;;14.50;99.90;;;;;;4998328;28;20498;-59
2023/07/18 05:12:05;;;;;;;11.13;7.80;;;14.60;99.90;;;;;;4996690;28;20480;-60
2023/07/18 05:14:33;;;;;;;11.97;8.10;;;14.60;99.90;;;;;;4996139;28;20587;-60
2023/07/18 05:17:01;;;;;;;10.80;7.63;;;14.60;99.90;;;;;;4993533;28;20478;-61
2023/07/18 05:19:29;;;;;;;8.73;6.83;;;14.70;99.90;;;;;;4989010;28;20488;-60
2023/07/18 05:21:59;;;;;;;11.33;8.13;;;14.80;99.90;;;;;;4990634;28;20485;-60
2023/07/18 05:24:27;;;;;;;9.20;7.27;;;14.90;99.90;;;;;;4995238;28;20503;-60
2023/07/18 05:26:54;;;;;;;8.10;6.97;;;14.90;99.90;;;;;;4997438;28;20472;-60
2023/07/18 05:29:23;;;;;;;8.57;6.87;;;15.00;99.90;;;;;;4989552;28;20484;-59
2023/07/18 05:31:51;;;;;;;9.23;7.30;;;15.10;99.90;;;;;;4991323;28;20492;-60
2023/07/18 05:34:19;;;;;;;11.33;7.17;;;15.10;99.90;;;;;;4991251;28;20877;-58
2023/07/18 05:36:47;;;;;;;8.57;6.50;;;15.10;99.90;;;;;;4988469;28;21040;-58
2023/07/18 05:39:16;;;;;;;9.30;7.30;;;15.20;99.90;;;;;;4978529;28;20476;-62
2023/07/18 05:41:44;;;;;;;9.73;6.97;;;15.30;99.90;;;;;;4980060;28;20572;-60
2023/07/18 05:44:12;;;;;;;8.50;7.03;;;15.30;99.90;;;;;;4973519;28;20496;-59
2023/07/18 05:46:40;;;;;;;9.33;7.67;;;15.30;99.90;;;;;;4979298;28;20503;-60
2023/07/18 05:49:08;;;;;;;8.43;6.50;;;15.40;99.90;;;;;;4986627;28;24287;-59
2023/07/18 05:51:36;;;;;;;10.47;7.03;;;15.40;99.90;;;;;;4984834;28;20578;-58
2023/07/18 05:54:05;;;;;;;7.33;6.40;;;15.50;99.90;;;;;;4991541;28;20503;-61
2023/07/18 05:56:34;;;;;;;11.80;7.43;;;15.50;99.90;;;;;;4989617;28;20486;-59
2023/07/18 05:59:05;;;;;;;7.70;6.77;;;15.60;99.90;;;;;;4983344;28;20558;-58
2023/07/18 06:01:33;;;;;;;6.60;6.00;;;15.60;99.90;;;;;;4988229;28;20539;-59
2023/07/18 06:04:01;;;;;;;8.60;6.07;;;15.70;99.90;;;;;;4989415;28;20582;-59
2023/07/18 06:06:30;;;;;;;6.87;5.77;;;15.70;99.90;;;;;;4988269;28;20484;-57
2023/07/18 06:08:58;;;;;;;8.43;6.40;;;15.80;99.90;;;;;;4988601;28;20469;-60
2023/07/18 06:11:26;;;;;;;8.47;7.57;;;15.80;99.90;;;;;;4987976;28;20513;-60
2023/07/18 06:13:56;;;;;;;8.13;5.90;;;15.80;99.90;;;;;;4988599;28;20583;-60
2023/07/18 06:16:24;;;;;;;12.10;7.20;;;15.80;99.90;;;;;;4990383;28;20503;-60
2023/07/18 06:18:52;;;;;;;9.50;6.17;;;15.90;99.90;;;;;;4984301;28;20570;-59
2023/07/18 06:21:20;;;;;;;8.03;6.50;;;16.00;99.90;;;;;;4989133;28;20488;-61
2023/07/18 06:23:49;;;;;;;11.80;6.77;;;16.10;99.90;;;;;;4989263;28;20500;-58
2023/07/18 06:26:23;;;;;;;7.80;6.57;;;16.10;99.90;;;;;;4994146;28;20463;-60
2023/07/18 06:28:52;;;;;;;7.07;6.00;;;16.10;99.90;;;;;;4988743;28;20476;-60
2023/07/18 06:31:23;;;;;;;11.60;6.63;;;16.20;99.90;;;;;;4986819;28;20488;-58
2023/07/18 06:33:51;;;;;;;10.93;6.67;;;16.20;99.90;;;;;;4983071;28;20497;-60
2023/07/18 06:36:20;;;;;;;8.30;6.00;;;16.30;99.90;;;;;;4981132;28;20476;-58
2023/07/18 06:38:48;;;;;;;11.77;6.03;;;16.30;99.90;;;;;;4982099;28;20472;-58
2023/07/18 06:41:16;;;;;;;10.03;6.03;;;16.40;99.90;;;;;;4984895;28;20515;-57
2023/07/18 06:43:45;;;;;;;7.10;6.00;;;16.40;99.90;;;;;;4977262;28;20500;-57
2023/07/18 06:46:13;;;;;;;8.57;6.07;;;16.40;99.90;;;;;;4985321;28;20468;-59
2023/07/18 06:48:43;;;;;;;6.37;5.60;;;16.40;99.90;;;;;;4978872;28;21069;-57
2023/07/18 06:51:14;;;;;;;11.97;6.10;;;16.40;99.90;;;;;;4983888;28;20500;-60
2023/07/18 06:53:42;;;;;;;6.87;5.20;;;16.40;99.90;;;;;;4989697;28;20491;-60
2023/07/18 06:56:10;;;;;;;9.47;6.30;;;16.50;99.90;;;;;;4987424;28;20511;-57
2023/07/18 06:58:38;;;;;;;7.47;5.90;;;16.50;99.90;;;;;;4991174;28;20484;-59
2023/07/18 07:01:06;;;;;;;7.03;6.00;;;16.50;99.90;;;;;;4983380;28;20488;-59
2023/07/18 07:03:34;;;;;;;10.40;6.60;;;16.50;99.90;;;;;;4989510;28;20554;-59
2023/07/18 07:06:10;;;;;;;6.37;5.77;;;16.60;99.90;;;;;;4990638;28;20486;-57
2023/07/18 07:08:38;;;;;;;7.17;5.90;;;16.70;99.90;;;;;;4990276;28;20480;-59
2023/07/18 07:11:08;;;;;;;12.00;6.20;;;16.70;99.90;;;;;;4988931;28;20982;-59
2023/07/18 07:13:37;;;;;;;8.70;5.70;;;16.70;99.90;;;;;;4989268;28;20991;-59
2023/07/18 07:16:05;;;;;;;7.43;5.90;;;16.80;99.90;;;;;;4989771;28;20570;-59
2023/07/18 07:18:33;;;;;;;6.47;5.77;;;16.90;99.90;;;;;;4993828;28;20475;-59
2023/07/18 07:21:02;;;;;;;10.37;6.33;;;16.90;99.90;;;;;;4986175;28;20543;-58
2023/07/18 07:23:31;;;;;;;7.07;5.53;;;17.00;99.90;;;;;;4995270;28;20508;-59
2023/07/18 07:26:00;;;;;;;8.00;6.00;;;17.10;99.90;;;;;;4995601;28;20500;-59
2023/07/18 07:28:28;;;;;;;6.30;5.63;;;17.20;99.90;;;;;;4991589;28;20468;-59
2023/07/18 07:30:56;;;;;;;6.83;6.30;;;17.20;99.90;;;;;;4996531;28;20474;-59
2023/07/18 07:33:24;;;;;;;8.00;6.10;;;17.20;99.90;;;;;;4989056;28;20487;-59
2023/07/18 07:35:54;;;;;;;7.77;5.90;;;17.30;99.90;;;;;;4994716;28;20869;-59
2023/07/18 07:38:21;;;;;;;8.50;5.70;;;17.30;99.90;;;;;;4991801;28;20480;-59
2023/07/18 07:40:51;;;;;;;10.67;6.30;;;17.30;99.90;;;;;;4995186;28;20522;-59
2023/07/18 07:43:19;;;;;;;7.13;6.10;;;17.30;99.90;;;;;;4993080;28;21091;-59
2023/07/18 07:45:47;;;;;;;7.73;5.80;;;17.40;99.90;;;;;;4991108;28;20596;-59
2023/07/18 07:48:15;;;;;;;8.70;5.90;;;17.60;99.90;;;;;;4991266;28;20475;-59
2023/07/18 07:50:44;;;;;;;7.63;5.80;;;17.70;99.90;;;;;;4987295;28;21011;-58
2023/07/18 07:53:12;;;;;;;7.10;5.30;;;17.70;99.90;;;;;;4988458;28;20475;-59
2023/07/18 07:55:40;;;;;;;5.50;5.00;;;17.80;99.90;;;;;;4984608;28;20575;-59
2023/07/18 07:58:10;;;;;;;7.17;4.60;;;17.70;99.90;;;;;;4992163;28;20947;-59
2023/07/18 08:00:37;;;;;;;6.07;5.00;;;17.70;99.90;;;;;;4980220;28;20993;-58
2023/07/18 08:03:06;;;;;;;5.53;4.70;;;17.80;99.90;;;;;;4986569;28;20484;-58
2023/07/18 08:05:33;;;;;;;6.97;4.37;;;17.90;99.90;;;;;;4990419;28;20876;-58
2023/07/18 08:08:02;;;;;;;5.63;4.50;;;17.90;99.90;;;;;;4989603;28;20465;-58
2023/07/18 08:10:30;;;;;;;7.23;5.20;;;17.90;99.90;;;;;;4992313;28;20927;-58
2023/07/18 08:12:58;;;;;;;4.63;4.23;;;18.00;99.90;;;;;;4991333;28;20520;-59
2023/07/18 08:15:27;;;;;;;5.53;4.73;;;18.00;99.90;;;;;;4992647;28;20502;-59
2023/07/18 08:17:55;;;;;;;4.53;4.00;;;18.10;99.90;;;;;;4989412;28;20555;-57
2023/07/18 08:20:24;;;;;;;4.67;3.87;;;18.20;99.90;;;;;;4985923;28;20476;-59
2023/07/18 08:22:52;;;;;;;4.40;4.00;;;18.30;99.90;;;;;;4990499;28;20517;-58
2023/07/18 08:25:20;;;;;;;4.43;4.03;;;18.30;99.90;;;;;;4989994;28;20504;-58
2023/07/18 08:27:48;;;;;;;5.93;4.60;;;18.40;99.90;;;;;;4992945;28;20515;-59
2023/07/18 08:30:16;;;;;;;5.87;4.00;;;18.50;99.90;;;;;;4988358;28;20993;-58
2023/07/18 08:32:45;;;;;;;6.73;4.13;;;18.40;99.90;;;;;;4990292;28;20630;-59
2023/07/18 08:35:13;;;;;;;6.43;4.20;;;18.40;99.90;;;;;;4991830;28;21072;-59
2023/07/18 08:37:41;;;;;;;4.53;3.70;;;18.50;99.90;;;;;;4987315;28;20484;-58
2023/07/18 08:40:10;;;;;;;4.57;4.10;;;18.50;99.90;;;;;;4989271;28;20469;-59
2023/07/18 08:42:38;;;;;;;6.10;3.93;;;18.60;99.90;;;;;;4992224;28;20520;-59
2023/07/18 08:45:13;;;;;;;5.50;3.80;;;18.70;99.90;;;;;;4992388;28;20492;-59
2023/07/18 08:47:42;;;;;;;5.10;4.43;;;18.70;99.90;;;;;;4992385;28;20468;-59
2023/07/18 08:50:12;;;;;;;4.60;4.20;;;18.70;99.90;;;;;;4994008;28;20479;-58
2023/07/18 08:52:41;;;;;;;4.00;3.70;;;18.80;99.90;;;;;;4992187;28;20563;-59
2023/07/18 08:55:10;;;;;;;4.77;4.10;;;18.80;99.90;;;;;;4991576;28;20489;-59
2023/07/18 08:57:41;;;;;;;3.60;3.30;;;18.90;99.90;;;;;;4991186;28;20499;-58
2023/07/18 09:00:11;;;;;;;5.10;3.50;;;19.00;99.90;;;;;;4994513;28;20468;-58
2023/07/18 09:02:39;;;;;;;4.90;3.50;;;19.10;99.90;;;;;;4993892;28;20484;-59
2023/07/18 09:05:27;;;;;;;5.03;3.90;;;19.10;99.90;;;;;;4989648;28;21324;-59
2023/07/18 09:07:57;;;;;;;6.13;3.97;;;19.20;99.90;;;;;;4992105;28;20915;-59
2023/07/18 09:10:26;;;;;;;5.10;3.77;;;19.10;99.90;;;;;;4991142;28;20508;-59
2023/07/18 09:12:55;;;;;;;5.10;4.10;;;19.10;99.90;;;;;;4987919;28;20484;-59
2023/07/18 09:15:23;;;;;;;6.00;3.80;;;19.00;99.90;;;;;;4991357;28;20588;-58
2023/07/18 09:17:55;;;;;;;4.87;3.50;;;19.00;99.90;;;;;;4991031;28;20544;-59
2023/07/18 09:20:25;;;;;;;7.07;3.50;;;19.10;99.90;;;;;;4991020;28;22055;-57
2023/07/18 09:22:56;;;;;;;3.47;3.10;;;19.20;99.90;;;;;;4991667;28;22042;-58
2023/07/18 09:25:26;;;;;;;3.50;2.90;;;19.10;99.90;;;;;;4993392;28;20495;-59
2023/07/18 09:27:55;;;;;;;3.57;3.27;;;19.20;99.90;;;;;;4992052;28;20505;-59
2023/07/18 09:30:27;;;;;;;4.10;3.13;;;19.30;99.90;;;;;;4988358;28;20595;-58
2023/07/18 09:32:56;;;;;;;3.50;2.90;;;19.50;99.90;;;;;;4992608;28;20493;-59
2023/07/18 09:35:27;;;;;;;4.10;2.93;;;19.60;99.90;;;;;;4992813;28;20516;-59
2023/07/18 09:37:57;;;;;;;3.53;2.70;;;19.60;99.90;;;;;;4988955;28;20496;-58
2023/07/18 09:40:26;;;;;;;3.10;2.90;;;19.70;99.90;;;;;;4991070;28;20914;-58
2023/07/18 09:42:55;;;;;;;3.17;2.87;;;19.70;99.90;;;;;;4992319;28;20508;-59
2023/07/18 09:45:35;;;;;;;3.60;2.63;;;19.80;99.90;;;;;;4988358;28;20532;-58
2023/07/18 09:48:11;;;;;;;3.33;2.70;;;19.90;99.90;;;;;;4992003;28;20503;-58
2023/07/18 09:50:41;;;;;;;4.47;2.90;;;20.00;99.90;;;;;;4994607;28;20475;-59
2023/07/18 09:53:12;;;;;;;3.73;2.13;;;20.10;99.90;;;;;;4986612;28;20642;-59
2023/07/18 09:55:42;;;;;;;2.57;2.37;;;20.30;99.90;;;;;;4996386;28;20496;-58
2023/07/18 09:58:13;;;;;;;2.10;1.87;;;20.30;99.90;;;;;;4994761;28;20484;-59
2023/07/18 10:00:43;;;;;;;4.23;2.27;;;20.30;99.90;;;;;;4986209;28;20526;-59
2023/07/18 10:03:15;;;;;;;2.10;1.90;;;20.30;99.90;;;;;;4994449;28;20488;-59
2023/07/18 10:05:43;;;;;;;3.40;2.80;;;20.20;99.90;;;;;;4996335;28;20497;-59
2023/07/18 10:08:12;;;;;;;2.90;2.20;;;20.10;99.90;;;;;;4988394;28;21080;-59
2023/07/18 10:10:42;;;;;;;2.27;2.10;;;20.10;99.90;;;;;;4984777;28;20555;-59
2023/07/18 10:13:10;;;;;;;2.60;2.40;;;20.30;99.90;;;;;;4993058;28;20611;-57
2023/07/18 10:16:19;;;;;;;3.00;2.20;;;20.30;99.90;;;;;;4983812;28;20957;-58
2023/07/18 10:18:48;;;;;;;2.63;2.30;;;20.30;99.90;;;;;;4965733;28;20472;-59
2023/07/18 10:21:29;;;;;;;3.07;2.70;;;20.40;99.90;;;;;;4981336;28;20557;-58
2023/07/18 10:23:57;;;;;;;2.33;2.13;;;20.50;99.90;;;;;;4992253;28;20576;-59
2023/07/18 10:26:34;;;;;;;2.97;2.07;;;20.40;99.90;;;;;;4986634;28;20879;-58
2023/07/18 10:29:05;;;;;;;3.47;2.10;;;20.40;99.90;;;;;;4976658;28;20469;-58
2023/07/18 10:31:36;;;;;;;2.60;2.07;;;20.50;99.90;;;;;;4986841;28;20517;-59
2023/07/18 10:34:14;;;;;;;2.50;2.10;;;20.60;99.90;;;;;;4986066;28;21093;-58
2023/07/18 10:36:54;;;;;;;3.07;2.10;;;20.60;99.90;;;;;;4994397;28;20551;-59
2023/07/18 10:39:38;;;;;;;2.40;2.20;;;20.60;99.90;;;;;;4989345;28;20467;-59
2023/07/18 10:42:09;;;;;;;2.43;1.80;;;20.80;99.90;;;;;;4990844;28;20485;-59
2023/07/18 10:44:37;;;;;;;2.47;1.80;;;20.70;99.90;;;;;;4995927;28;20550;-59
2023/07/18 10:47:13;;;;;;;2.20;2.00;;;20.70;99.90;;;;;;4989878;28;21027;-59
2023/07/18 10:49:42;;;;;;;2.70;2.50;;;20.90;99.90;;;;;;4988899;28;20477;-59
2023/07/18 10:52:10;;;;;;;2.30;2.10;;;21.00;99.90;;;;;;4982920;28;20492;-59
2023/07/18 10:54:43;;;;;;;2.00;1.80;;;21.10;99.90;;;;;;4986533;28;20628;-58
2023/07/18 10:57:14;;;;;;;3.93;2.43;;;21.20;99.90;;;;;;4982129;28;20570;-59
2023/07/18 10:59:44;;;;;;;2.43;2.23;;;21.30;99.90;;;;;;4985213;28;21076;-60
2023/07/18 11:02:12;;;;;;;2.70;2.40;;;21.20;99.90;;;;;;4989846;28;20494;-59
2023/07/18 11:04:40;;;;;;;1.77;1.67;;;21.20;99.90;;;;;;4983797;28;20496;-59
2023/07/18 11:07:10;;;;;;;2.90;2.00;;;21.30;99.90;;;;;;4986150;28;20511;-60
2023/07/18 11:09:38;;;;;;;4.03;2.20;;;21.40;99.90;;;;;;4984343;28;20507;-59
2023/07/18 11:12:07;;;;;;;2.10;1.90;;;21.50;99.90;;;;;;4989516;28;20465;-58
2023/07/18 11:14:40;;;;;;;2.43;1.93;;;21.50;99.90;;;;;;4988248;28;20599;-57
2023/07/18 11:17:13;;;;;;;4.23;1.93;;;21.60;99.90;;;;;;4987537;28;20559;-56
2023/07/18 11:19:41;;;;;;;1.90;1.60;;;21.60;99.90;;;;;;4986984;28;20476;-59
2023/07/18 11:22:13;;;;;;;1.50;1.40;;;21.80;99.90;;;;;;4986630;28;21301;-59
2023/07/18 11:24:41;;;;;;;2.40;1.90;;;22.00;99.90;;;;;;4985386;28;20499;-59
2023/07/18 11:27:17;;;;;;;2.00;1.70;;;22.10;99.90;;;;;;4985914;28;20496;-57
2023/07/18 11:30:00;;;;;;;1.90;1.67;;;22.10;99.90;;;;;;4981903;28;20473;-56
2023/07/18 11:32:33;;;;;;;1.70;1.60;;;22.20;99.90;;;;;;4987733;28;20491;-56
2023/07/18 11:35:01;;;;;;;1.97;1.60;;;22.30;99.90;;;;;;4986830;28;20818;-57
2023/07/18 11:37:30;;;;;;;1.87;1.77;;;22.40;99.90;;;;;;4983927;28;20720;-56
2023/07/18 11:40:03;;;;;;;1.50;1.40;;;22.50;99.90;;;;;;4983036;28;21089;-57
2023/07/18 11:42:45;;;;;;;1.53;1.43;;;22.60;99.90;;;;;;4981331;28;21112;-57
2023/07/18 11:45:17;;;;;;;2.70;1.60;;;22.70;99.90;;;;;;4986156;28;20578;-57
2023/07/18 11:47:51;;;;;;;2.53;1.40;;;22.70;99.90;;;;;;4984350;28;20496;-57
2023/07/18 11:50:20;;;;;;;2.10;1.40;;;22.80;99.90;;;;;;4984839;28;20495;-56
2023/07/18 11:52:49;;;;;;;3.10;1.50;;;22.70;99.90;;;;;;4987689;28;20554;-57
2023/07/18 11:55:18;;;;;;;1.73;1.30;;;22.60;99.90;;;;;;4988818;28;20554;-57
2023/07/18 11:57:48;;;;;;;2.30;1.60;;;22.60;99.90;;;;;;4985361;28;20469;-56
2023/07/18 12:00:19;;;;;;;2.40;1.40;;;22.70;99.90;;;;;;4988903;28;20479;-57
2023/07/18 12:02:48;;;;;;;2.97;1.60;;;22.70;99.90;;;;;;4988425;28;20489;-57
2023/07/18 12:05:17;;;;;;;2.73;1.70;;;22.70;99.90;;;;;;4983646;28;20492;-57
2023/07/18 12:07:46;;;;;;;1.57;1.47;;;22.70;99.90;;;;;;4989328;28;20582;-57
2023/07/18 12:10:15;;;;;;;1.50;1.40;;;22.70;99.90;;;;;;4985559;28;20576;-57
2023/07/18 12:12:44;;;;;;;1.73;1.57;;;22.70;99.90;;;;;;4982393;28;20608;-56
2023/07/18 12:15:13;;;;;;;1.63;1.30;;;22.70;99.90;;;;;;4983474;28;20492;-57
2023/07/18 12:17:42;;;;;;;1.47;1.37;;;22.70;99.90;;;;;;4984739;28;20468;-57
2023/07/18 12:20:12;;;;;;;1.30;1.20;;;22.60;99.90;;;;;;4977938;28;20543;-57
2023/07/18 12:22:40;;;;;;;1.33;1.23;;;22.70;99.90;;;;;;4990541;28;20484;-57
2023/07/18 12:25:09;;;;;;;1.30;1.20;;;22.70;99.90;;;;;;4980905;28;20495;-56
2023/07/18 12:27:38;;;;;;;2.60;1.50;;;22.70;99.90;;;;;;4982986;28;20527;-56
2023/07/18 12:30:08;;;;;;;2.20;1.70;;;22.80;99.90;;;;;;4983806;28;20472;-57
2023/07/18 12:32:36;;;;;;;1.50;1.40;;;22.90;99.90;;;;;;4987029;28;20575;-57
2023/07/18 12:35:06;;;;;;;1.90;1.43;;;22.90;99.90;;;;;;4984285;28;21049;-56
2023/07/18 12:37:34;;;;;;;2.43;1.50;;;22.90;99.90;;;;;;4984892;28;20857;-56
2023/07/18 12:40:03;;;;;;;1.33;1.20;;;22.80;99.90;;;;;;4981830;28;20518;-56
2023/07/18 12:42:31;;;;;;;1.57;1.40;;;22.80;99.90;;;;;;4982256;28;22407;-56
2023/07/18 12:44:59;;;;;;;1.87;1.40;;;22.70;99.90;;;;;;4978906;28;20499;-56
2023/07/18 12:47:27;;;;;;;2.00;1.50;;;22.80;99.90;;;;;;4983948;28;20503;-57
2023/07/18 12:49:56;;;;;;;1.60;1.50;;;22.80;99.90;;;;;;4984678;28;21580;-55
2023/07/18 12:52:25;;;;;;;1.53;1.30;;;22.80;99.90;;;;;;4980932;28;20554;-55
2023/07/18 12:54:53;;;;;;;1.90;1.73;;;22.90;99.90;;;;;;4980524;28;20875;-57
2023/07/18 12:57:21;;;;;;;2.53;1.30;;;22.90;99.90;;;;;;4982204;28;20500;-57
2023/07/18 12:59:49;;;;;;;2.50;1.57;;;22.80;99.90;;;;;;4971364;28;20515;-57
2023/07/18 13:02:17;;;;;;;2.07;1.50;;;22.70;99.90;;;;;;4979960;28;20579;-58
2023/07/18 13:04:45;;;;;;;1.67;1.20;;;22.60;99.90;;;;;;4980890;28;21283;-57
2023/07/18 13:07:14;;;;;;;1.83;1.60;;;22.70;99.90;;;;;;4973814;28;20954;-58
2023/07/18 13:09:44;;;;;;;1.43;1.27;;;22.80;99.90;;;;;;4982980;28;20560;-58
2023/07/18 13:12:12;;;;;;;1.60;1.50;;;22.90;99.90;;;;;;4976787;28;20596;-57
2023/07/18 13:14:40;;;;;;;1.53;1.43;;;23.00;99.90;;;;;;4977267;28;20579;-58
2023/07/18 13:17:08;;;;;;;1.40;1.30;;;23.10;99.90;;;;;;4976626;28;20475;-58
2023/07/18 13:19:36;;;;;;;1.47;1.00;;;23.20;99.90;;;;;;4986783;28;20563;-58
2023/07/18 13:22:05;;;;;;;1.67;1.20;;;23.20;99.90;;;;;;4974409;28;20581;-59
2023/07/18 13:24:33;;;;;;;1.67;1.30;;;23.10;99.90;;;;;;4977583;28;20496;-58